M I D A S
Marine Information and Data Acquisition System
Tripno 1760 of the Zeeleeuw from 2009-06-19 06:15:55 to 2009-06-19 16:13:22
Back to CruiseResearch ActivitiesStationsMapUnderway DataData graphs

EquipmentUnitsComment
TimeDGPSUTC
LatitudeDGPSDM.mWGS84
LongitudeDGPSDM.mWGS84
TemperatureSBE03/SBE38deg celciusITS90
ConductivitySBE21S/mITS90
SalinitySBE21 Practical Salinity Units
ChlorophylAChelsea fluorimeterg/lCalibrated in Aceton
Missing or incorrect values are displayed as -999
Sea surface data collected by the RV Zeeleeuw from 2009-06-19 06:19:04 to 2009-06-19 16:24:32
Time Latitude Longitude Temperature Conductivity Salinity ChlorophylA
2009-06-19 06:20:13 51°13.681 2°55.885 20.5266 0.259584 1.58512 0.810283
2009-06-19 06:21:13 51°13.691 2°55.803 20.5362 0.259584 1.585181 0.810283
2009-06-19 06:22:12 51°13.691 2°55.75 20.5735 0.259481 1.584579 0.810283
2009-06-19 06:23:10 51°13.699 2°55.765 20.5266 0.259481 1.584579 0.845107
2009-06-19 06:24:11 51°13.723 2°55.75 20.5391 0.259379 1.583976 0.810283
2009-06-19 06:25:09 51°13.817 2°55.649 20.4667 0.259379 1.583915 0.810283
2009-06-19 06:26:09 51°13.955 2°55.537 20.5377 0.259379 1.583976 0.810283
2009-06-19 06:27:09 51°14.118 2°55.423 20.5607 0.259276 1.583282 0.810283
2009-06-19 06:28:09 51°14.268 2°55.256 20.5284 0.259276 1.583251 0.810283
2009-06-19 06:29:08 51°14.403 2°55.068 20.5005 0.259276 1.583282 0.810283
2009-06-19 06:30:08 51°14.547 2°54.893 20.4504 0.259173 1.582618 0.810283
2009-06-19 06:31:08 51°14.695 2°54.733 20.463 0.259173 1.582618 0.810283
2009-06-19 06:32:09 51°14.77 2°54.478 20.4456 0.259173 1.582557 0.810283
2009-06-19 06:33:09 51°14.805 2°54.2 20.4477 0.259173 1.582587 0.810283
2009-06-19 06:34:09 51°14.852 2°53.924 20.4542 0.259173 1.582587 0.810283
2009-06-19 06:35:09 51°14.906 2°53.652 20.4531 0.259173 1.582587 0.810283
2009-06-19 06:36:08 51°14.962 2°53.387 20.4465 0.259173 1.582618 0.810283
2009-06-19 06:37:09 51°15.021 2°53.115 20.4679 0.25907 1.581954 0.810283
2009-06-19 06:38:09 51°15.08 2°52.845 20.4657 0.259173 1.582679 0.810283
2009-06-19 06:39:09 51°15.135 2°52.577 20.484 0.25907 1.582046 0.810283
2009-06-19 06:40:09 51°15.194 2°52.308 20.4934 0.259173 1.582771 0.845107
2009-06-19 06:41:09 51°15.252 2°52.04 20.4964 0.259173 1.582802 0.810283
2009-06-19 06:42:09 51°15.312 2°51.771 20.5047 0.259173 1.582924 0.810283
2009-06-19 06:43:09 51°15.372 2°51.506 20.5058 0.259173 1.582955 0.810283
2009-06-19 06:44:09 51°15.415 2°51.235 20.5233 0.259173 1.583078 0.810283
2009-06-19 06:45:09 51°15.454 2°50.964 20.5275 0.259276 1.583803 0.810283
2009-06-19 06:46:09 51°15.491 2°50.69 20.5306 0.259276 1.583864 0.810283
2009-06-19 06:47:08 51°15.531 2°50.42 20.5469 0.259276 1.583987 0.810283
2009-06-19 06:48:08 51°15.57 2°50.147 20.5457 0.259276 1.584079 0.810283
2009-06-19 06:49:09 51°15.608 2°49.871 20.5705 0.259276 1.584171 0.810283
2009-06-19 06:50:09 51°15.647 2°49.602 20.5836 0.259276 1.584294 0.810283
2009-06-19 06:51:09 51°15.685 2°49.333 20.5808 0.259379 1.58502 0.810283
2009-06-19 06:52:09 51°15.722 2°49.063 20.5877 0.259379 1.585142 0.810283
2009-06-19 06:53:09 51°15.758 2°48.794 20.6047 0.259379 1.585265 0.810283
2009-06-19 06:54:09 51°15.794 2°48.528 20.6156 0.259379 1.585388 0.810283
2009-06-19 06:55:09 51°15.835 2°48.26 20.6156 0.259379 1.58548 0.810283
2009-06-19 06:56:09 51°15.876 2°47.988 20.6288 0.259379 1.585603 0.810283
2009-06-19 06:57:10 51°15.917 2°47.712 20.6344 0.259482 1.586391 0.810283
2009-06-19 06:58:09 51°15.955 2°47.45 20.6398 0.259482 1.586452 0.810283
2009-06-19 06:59:09 51°15.996 2°47.186 20.66 0.259379 1.585941 0.810283
2009-06-19 07:00:09 51°16.046 2°46.921 20.6715 0.259379 1.586003 0.810283
2009-06-19 07:01:09 51°16.098 2°46.656 20.6704 0.259379 1.586126 0.810283
2009-06-19 07:02:09 51°16.146 2°46.395 20.6915 0.259379 1.586249 0.775459
2009-06-19 07:03:09 51°16.2 2°46.137 20.7005 0.259379 1.58631 0.810283
2009-06-19 07:04:09 51°16.275 2°45.888 20.705 0.259379 1.586526 0.775459
2009-06-19 07:05:09 51°16.357 2°45.645 20.7182 0.259379 1.586556 0.775459
2009-06-19 07:06:10 51°16.46 2°45.415 20.7303 0.259379 1.58668 0.775459
2009-06-19 07:07:09 51°16.562 2°45.198 20.7361 0.259379 1.586803 0.775459
2009-06-19 07:08:09 51°16.663 2°44.979 20.7554 0.259276 1.58623 0.810283
2009-06-19 07:09:09 51°16.764 2°44.753 20.7595 0.259379 1.587049 0.775459
2009-06-19 07:10:09 51°16.866 2°44.528 20.7602 0.259379 1.58708 0.810283
2009-06-19 07:11:09 51°16.974 2°44.311 20.7815 0.259379 1.587172 0.775459
2009-06-19 07:12:09 51°17.084 2°44.092 20.7852 0.259276 1.58663 0.775459
2009-06-19 07:13:09 51°17.195 2°43.875 20.7992 0.259276 1.586692 0.775459
2009-06-19 07:14:09 51°17.308 2°43.664 20.8088 0.259173 1.586057 0.775459
2009-06-19 07:15:09 51°17.418 2°43.45 20.8134 0.259173 1.586149 0.775459
2009-06-19 07:16:09 51°17.527 2°43.239 20.8157 0.259173 1.586242 0.775459
2009-06-19 07:17:09 51°17.636 2°43.035 20.8431 0.259173 1.586396 0.740634
2009-06-19 07:18:09 51°17.748 2°42.833 20.8477 0.25907 1.585669 0.775459
2009-06-19 07:19:09 51°17.861 2°42.623 20.8577 0.25907 1.58573 0.740634
2009-06-19 07:20:10 51°17.976 2°42.4 20.8654 0.25907 1.585761 0.775459
2009-06-19 07:21:09 51°18.084 2°42.185 20.8751 0.25907 1.585823 0.775459
2009-06-19 07:22:09 51°18.195 2°41.962 20.8806 0.25907 1.585915 0.740634
2009-06-19 07:23:09 51°18.306 2°41.745 20.885 0.25907 1.585977 0.740634
2009-06-19 07:24:09 51°18.416 2°41.533 20.9123 0.25907 1.585977 0.775459
2009-06-19 07:25:09 51°18.527 2°41.321 20.909 0.25907 1.5861 0.740634
2009-06-19 07:26:09 51°18.639 2°41.107 20.9192 0.258967 1.585434 0.740634
2009-06-19 07:27:10 51°18.753 2°40.892 20.929 0.258967 1.585527 0.740634
2009-06-19 07:28:08 51°18.864 2°40.688 20.9396 0.258967 1.585588 0.740634
2009-06-19 07:29:10 51°18.983 2°40.472 20.9556 0.258864 1.584984 0.775459
2009-06-19 07:30:09 51°19.096 2°40.264 20.9539 0.258864 1.585046 0.740634
2009-06-19 07:31:08 51°19.209 2°40.054 20.9694 0.258967 1.585711 0.740634
2009-06-19 07:32:08 51°19.324 2°39.837 20.9803 0.258967 1.585773 0.740634
2009-06-19 07:33:10 51°19.443 2°39.611 20.9903 0.258864 1.585169 0.740634
2009-06-19 07:34:09 51°19.557 2°39.396 21.0029 0.258864 1.585261 0.740634
2009-06-19 07:35:09 51°19.671 2°39.177 21.0126 0.258967 1.585958 0.740634
2009-06-19 07:36:09 51°19.784 2°38.957 21.007 0.258864 1.585354 0.740634
2009-06-19 07:37:09 51°19.899 2°38.741 21.0226 0.258864 1.585415 0.740634
2009-06-19 07:38:09 51°20.013 2°38.521 21.0246 0.258864 1.585508 0.740634
2009-06-19 07:39:09 51°20.124 2°38.306 21.0528 0.258761 1.584934 0.740634
2009-06-19 07:40:09 51°20.234 2°38.092 21.0576 0.258864 1.5856 0.740634
2009-06-19 07:41:09 51°20.346 2°37.877 21.0692 0.258864 1.585723 0.740634
2009-06-19 07:42:09 51°20.457 2°37.67 21.0831 0.258864 1.585785 0.740634
2009-06-19 07:43:09 51°20.569 2°37.457 21.0851 0.258864 1.585785 0.775459
2009-06-19 07:44:08 51°20.68 2°37.247 21.0953 0.258761 1.585211 0.740634
2009-06-19 07:45:10 51°20.799 2°37.028 21.1136 0.258761 1.585304 0.775459
2009-06-19 07:46:09 51°20.914 2°36.824 21.118 0.258967 1.586729 0.775459
2009-06-19 07:47:10 51°21.043 2°36.636 21.1326 0.258864 1.586093 0.775459
2009-06-19 07:48:09 51°21.18 2°36.47 21.1234 0.258864 1.586155 0.775459
2009-06-19 07:49:09 51°21.327 2°36.309 21.138 0.258864 1.586186 0.775459
2009-06-19 07:50:09 51°21.474 2°36.15 21.1393 0.258864 1.58634 0.775459
2009-06-19 07:51:09 51°21.62 2°35.987 21.17 0.258761 1.585643 0.775459
2009-06-19 07:52:10 51°21.774 2°35.822 21.1647 0.258761 1.585612 0.775459
2009-06-19 07:53:09 51°21.937 2°35.694 21.1649 0.258761 1.585612 0.775459
2009-06-19 07:54:10 51°22.102 2°35.57 21.1996 0.258658 1.584946 0.775459
2009-06-19 07:55:09 51°22.258 2°35.451 21.2035 0.258761 1.58552 0.775459
2009-06-19 07:56:10 51°22.423 2°35.323 21.1961 0.258658 1.584884 0.775459
2009-06-19 07:57:10 51°22.581 2°35.196 21.2249 0.258555 1.584311 0.810283
2009-06-19 07:58:10 51°22.741 2°35.071 21.2183 0.258658 1.584946 0.775459
2009-06-19 07:59:09 51°22.899 2°34.944 21.2369 0.258555 1.58428 0.775459
2009-06-19 08:00:09 51°23.062 2°34.814 21.2457 0.258658 1.585069 0.810283
2009-06-19 08:01:10 51°23.23 2°34.684 21.2511 0.258555 1.584403 0.810283
2009-06-19 08:02:09 51°23.393 2°34.577 21.2473 0.258555 1.584403 0.810283
2009-06-19 08:03:09 51°23.566 2°34.467 21.2763 0.258452 1.583768 0.810283
2009-06-19 08:04:09 51°23.736 2°34.357 21.2728 0.258555 1.584495 0.810283
2009-06-19 08:05:09 51°23.907 2°34.25 21.2885 0.258555 1.584557 0.810283
2009-06-19 08:06:09 51°24.077 2°34.141 21.2789 0.258555 1.584588 0.810283
2009-06-19 08:07:09 51°24.25 2°34.039 21.2883 0.258555 1.584557 0.810283
2009-06-19 08:08:10 51°24.425 2°33.943 21.3058 0.258555 1.584588 0.845107
2009-06-19 08:09:10 51°24.599 2°33.855 21.3237 0.258452 1.583952 0.810283
2009-06-19 08:10:09 51°24.771 2°33.763 21.3338 0.258452 1.583891 0.810283
2009-06-19 08:11:09 51°24.946 2°33.668 21.3361 0.258555 1.584495 0.845107
2009-06-19 08:12:09 51°25.123 2°33.576 21.3434 0.258555 1.584526 0.845107
2009-06-19 08:13:10 51°25.299 2°33.486 21.3656 0.258452 1.583891 0.845107
2009-06-19 08:14:09 51°25.466 2°33.398 21.3502 0.258555 1.58468 0.845107
2009-06-19 08:15:10 51°25.64 2°33.303 21.3688 0.258555 1.58465 0.879931
2009-06-19 08:16:09 51°25.811 2°33.207 21.3582 0.258658 1.585316 0.845107
2009-06-19 08:17:09 51°25.988 2°33.109 21.3723 0.258658 1.585285 0.845107
2009-06-19 08:18:10 51°26.167 2°33.011 21.395 0.258555 1.58465 0.845107
2009-06-19 08:19:09 51°26.338 2°32.917 21.3994 0.258555 1.584619 0.845107
2009-06-19 08:20:09 51°26.514 2°32.811 21.4028 0.258658 1.585347 0.879931
2009-06-19 08:21:09 51°26.689 2°32.694 21.4006 0.258658 1.585408 0.879931
2009-06-19 08:22:10 51°26.862 2°32.58 21.4063 0.258761 1.586106 0.879931
2009-06-19 08:23:10 51°27.034 2°32.476 21.4254 0.258658 1.585408 0.879931
2009-06-19 08:24:10 51°27.209 2°32.368 21.4266 0.258761 1.586075 0.879931
2009-06-19 08:25:10 51°27.381 2°32.258 21.449 0.258658 1.585439 0.879931
2009-06-19 08:26:10 51°27.554 2°32.145 21.4438 0.258658 1.585532 0.879931
2009-06-19 08:27:09 51°27.719 2°32.034 21.4424 0.258658 1.585501 0.914755
2009-06-19 08:28:09 51°27.885 2°31.931 21.4515 0.258658 1.585563 0.914755
2009-06-19 08:29:10 51°28.05 2°31.833 21.467 0.258452 1.584199 0.914755
2009-06-19 08:30:09 51°28.21 2°31.739 21.4836 0.258658 1.585532 0.914755
2009-06-19 08:31:10 51°28.377 2°31.638 21.4769 0.258555 1.584865 0.914755
2009-06-19 08:32:09 51°28.547 2°31.533 21.4814 0.258658 1.585593 0.914755
2009-06-19 08:33:10 51°28.721 2°31.419 21.4846 0.258658 1.585593 0.914755
2009-06-19 08:34:10 51°28.892 2°31.306 21.4976 0.258555 1.584958 0.949579
2009-06-19 08:35:09 51°29.063 2°31.199 21.4999 0.258555 1.584927 0.914755
2009-06-19 08:36:09 51°29.236 2°31.09 21.5032 0.258658 1.585655 0.949579
2009-06-19 08:37:09 51°29.408 2°30.978 21.5027 0.258658 1.585655 0.949579
2009-06-19 08:38:10 51°29.585 2°30.863 21.5169 0.258761 1.586321 0.949579
2009-06-19 08:39:10 51°29.76 2°30.753 21.5295 0.258658 1.585717 0.949579
2009-06-19 08:40:10 51°29.935 2°30.647 21.5229 0.258555 1.585081 0.949579
2009-06-19 08:41:09 51°30.106 2°30.536 21.5332 0.258658 1.585778 0.984403
2009-06-19 08:42:10 51°30.284 2°30.417 21.5541 0.258658 1.585809 0.949579
2009-06-19 08:43:09 51°30.456 2°30.306 21.5526 0.258555 1.585081 0.949579
2009-06-19 08:44:10 51°30.631 2°30.188 21.5507 0.258761 1.586538 0.949579
2009-06-19 08:45:09 51°30.8 2°30.074 21.5591 0.258658 1.58584 0.984403
2009-06-19 08:46:09 51°30.972 2°29.963 21.5684 0.258761 1.586507 0.984403
2009-06-19 08:47:10 51°31.149 2°29.848 21.576 0.258658 1.585871 0.984403
2009-06-19 08:48:10 51°31.319 2°29.738 21.5969 0.258658 1.585933 0.984403
2009-06-19 08:49:10 51°31.491 2°29.626 21.5994 0.258658 1.585902 0.984403
2009-06-19 08:50:10 51°31.663 2°29.519 21.59 0.258658 1.58584 0.984403
2009-06-19 08:51:10 51°31.836 2°29.404 21.5902 0.258658 1.585902 0.984403
2009-06-19 08:52:09 51°32.006 2°29.291 21.6109 0.258658 1.585964 0.984403
2009-06-19 08:53:10 51°32.184 2°29.178 21.6039 0.258761 1.586692 0.984403
2009-06-19 08:54:10 51°32.36 2°29.066 21.619 0.258761 1.586661 0.984403
2009-06-19 08:55:10 51°32.537 2°28.955 21.6199 0.258658 1.586056 0.984403
2009-06-19 08:56:10 51°32.717 2°28.841 21.6405 0.258658 1.586087 1.019227
2009-06-19 08:57:09 51°32.893 2°28.733 21.6335 0.258761 1.586785 0.984403
2009-06-19 08:58:10 51°33.075 2°28.622 21.6282 0.258864 1.587482 0.984403
2009-06-19 08:59:10 51°33.255 2°28.508 21.6361 0.258864 1.58742 1.019227
2009-06-19 09:00:09 51°33.43 2°28.399 21.639 0.258864 1.587482 1.019227
2009-06-19 09:01:10 51°33.611 2°28.282 21.6625 0.258761 1.586815 0.984403
2009-06-19 09:02:10 51°33.791 2°28.169 21.6515 0.258761 1.586846 1.019227
2009-06-19 09:03:10 51°33.97 2°28.057 21.6563 0.258967 1.588211 0.984403
2009-06-19 09:04:10 51°34.148 2°27.941 21.6783 0.258864 1.587544 1.019227
2009-06-19 09:05:10 51°34.326 2°27.828 21.6787 0.258864 1.587575 1.019227
2009-06-19 09:06:09 51°34.498 2°27.713 21.6679 0.258761 1.586939 0.984403
2009-06-19 09:07:09 51°34.675 2°27.593 21.6866 0.258864 1.587698 1.019227
2009-06-19 09:08:10 51°34.856 2°27.478 21.6913 0.258658 1.586365 0.984403
2009-06-19 09:09:10 51°35.034 2°27.367 21.6934 0.258761 1.587062 1.019227
2009-06-19 09:10:10 51°35.213 2°27.253 21.7144 0.258761 1.587062 1.019227
2009-06-19 09:11:10 51°35.392 2°27.141 21.7086 0.258864 1.587698 1.019227
2009-06-19 09:12:10 51°35.572 2°27.03 21.6999 0.258864 1.587729 1.019227
2009-06-19 09:13:10 51°35.747 2°26.898 21.7175 0.258864 1.58776 0.984403
2009-06-19 09:14:10 51°35.919 2°26.76 21.7253 0.258864 1.587791 1.019227
2009-06-19 09:15:10 51°36.089 2°26.626 21.7181 0.258967 1.58852 1.019227
2009-06-19 09:16:10 51°36.259 2°26.49 21.7295 0.258864 1.587884 0.984403
2009-06-19 09:17:09 51°36.429 2°26.353 21.713 0.258967 1.588582 1.019227
2009-06-19 09:18:10 51°36.609 2°26.226 21.7288 0.258967 1.588613 1.019227
2009-06-19 09:19:10 51°36.79 2°26.115 21.7422 0.258967 1.588643 1.019227
2009-06-19 09:20:09 51°36.97 2°26.004 21.7284 0.25907 1.589341 1.019227
2009-06-19 09:21:10 51°37.155 2°25.89 21.7329 0.25907 1.589403 0.984403
2009-06-19 09:22:10 51°37.335 2°25.777 21.7603 0.258967 1.588829 0.984403
2009-06-19 09:23:10 51°37.514 2°25.665 21.759 0.258967 1.588798 0.984403
2009-06-19 09:24:10 51°37.695 2°25.551 21.7466 0.258967 1.588798 0.984403
2009-06-19 09:25:10 51°37.876 2°25.437 21.7688 0.258967 1.588798 0.984403
2009-06-19 09:26:09 51°38.055 2°25.322 21.7774 0.258967 1.58886 0.984403
2009-06-19 09:27:10 51°38.239 2°25.206 21.7604 0.25907 1.589527 0.984403
2009-06-19 09:28:10 51°38.405 2°25.06 21.7853 0.258967 1.588984 0.984403
2009-06-19 09:29:09 51°38.504 2°24.832 21.7815 0.258967 1.589015 0.984403
2009-06-19 09:30:10 51°38.529 2°24.554 21.7789 0.25907 1.589713 0.984403
2009-06-19 09:31:10 51°38.54 2°24.278 21.7803 0.25907 1.589775 0.984403
2009-06-19 09:32:10 51°38.574 2°24.002 21.7981 0.25907 1.589868 0.949579
2009-06-19 09:33:10 51°38.624 2°23.73 21.7972 0.25907 1.589868 0.949579
2009-06-19 09:34:10 51°38.685 2°23.461 21.7998 0.25907 1.589929 0.949579
2009-06-19 09:35:10 51°38.748 2°23.194 21.8039 0.25907 1.589991 0.949579
2009-06-19 09:36:09 51°38.81 2°22.934 21.8046 0.258967 1.589355 0.949579
2009-06-19 09:37:10 51°38.873 2°22.664 21.8169 0.258967 1.589386 0.949579
2009-06-19 09:38:10 51°38.926 2°22.444 21.8235 0.259173 1.590783 0.949579
2009-06-19 09:39:10 51°38.934 2°22.337 21.8213 0.259173 1.590814 0.949579
2009-06-19 09:40:10 51°38.906 2°22.324 21.8273 0.258967 1.589541 0.949579
2009-06-19 09:41:10 51°38.853 2°22.33 21.8228 0.25907 1.590208 0.914755
2009-06-19 09:42:10 51°38.821 2°22.29 21.8377 0.258967 1.589603 0.949579
2009-06-19 09:43:10 51°38.82 2°22.227 21.8268 0.25907 1.590332 0.949579
2009-06-19 09:44:10 51°38.854 2°22.161 21.8407 0.25907 1.590363 0.914755
2009-06-19 09:45:10 51°38.895 2°22.086 21.8297 0.258967 1.589758 0.914755
2009-06-19 09:46:10 51°38.938 2°22.003 21.8387 0.258967 1.589758 0.914755
2009-06-19 09:47:10 51°38.996 2°21.912 21.8491 0.258967 1.58982 0.914755
2009-06-19 09:48:10 51°39.065 2°21.834 21.857 0.258967 1.589882 0.914755
2009-06-19 09:49:10 51°39.14 2°21.769 21.8672 0.25907 1.590549 0.914755
2009-06-19 09:50:10 51°39.221 2°21.749 21.8609 0.258967 1.589944 0.914755
2009-06-19 09:51:10 51°39.306 2°21.766 21.8605 0.258864 1.589338 0.914755
2009-06-19 09:52:10 51°39.388 2°21.794 21.8694 0.258967 1.590037 0.879931
2009-06-19 09:53:10 51°39.467 2°21.824 21.8681 0.258967 1.590068 0.879931
2009-06-19 09:54:09 51°39.544 2°21.848 21.8712 0.25907 1.590766 0.879931
2009-06-19 09:55:10 51°39.624 2°21.868 21.8749 0.258864 1.589493 0.879931
2009-06-19 09:56:10 51°39.705 2°21.897 21.881 0.258967 1.590161 0.879931
2009-06-19 09:57:10 51°39.785 2°21.937 21.8817 0.258864 1.589586 0.879931
2009-06-19 09:58:10 51°39.863 2°21.977 21.8698 0.259173 1.59162 0.845107
2009-06-19 09:59:10 51°39.942 2°22.018 21.8901 0.258967 1.590347 0.879931
2009-06-19 10:00:10 51°40.023 2°22.072 21.8854 0.25907 1.591045 0.845107
2009-06-19 10:01:10 51°40.103 2°22.127 21.8949 0.258967 1.590409 0.879931
2009-06-19 10:02:10 51°40.182 2°22.183 21.8892 0.258967 1.590471 0.845107
2009-06-19 10:03:09 51°40.253 2°22.234 21.8898 0.25907 1.591138 0.845107
2009-06-19 10:04:10 51°40.325 2°22.286 21.899 0.25907 1.5912 0.845107
2009-06-19 10:05:09 51°40.394 2°22.341 21.9027 0.259173 1.59193 0.845107
2009-06-19 10:06:10 51°40.462 2°22.415 21.9051 0.25907 1.591293 0.845107
2009-06-19 10:07:10 51°40.521 2°22.506 21.9001 0.259173 1.592023 0.845107
2009-06-19 10:08:10 51°40.577 2°22.604 21.9054 0.25907 1.591355 0.845107
2009-06-19 10:09:10 51°40.624 2°22.713 21.8994 0.25907 1.591417 0.810283
2009-06-19 10:10:10 51°40.654 2°22.833 21.9023 0.258967 1.590781 0.810283
2009-06-19 10:11:10 51°40.668 2°22.957 21.9167 0.25907 1.591511 0.810283
2009-06-19 10:12:09 51°40.678 2°23.078 21.9137 0.258864 1.590237 0.810283
2009-06-19 10:13:10 51°40.691 2°23.203 21.8966 0.258967 1.590936 0.810283
2009-06-19 10:14:10 51°40.701 2°23.324 21.9202 0.25907 1.591666 0.775459
2009-06-19 10:15:10 51°40.706 2°23.445 21.9306 0.258967 1.59106 0.810283
2009-06-19 10:16:10 51°40.695 2°23.552 21.9268 0.25907 1.59179 0.775459
2009-06-19 10:17:10 51°40.681 2°23.649 21.9208 0.258967 1.591184 0.775459
2009-06-19 10:18:10 51°40.671 2°23.739 21.9295 0.25907 1.591883 0.775459
2009-06-19 10:19:10 51°40.657 2°23.819 21.9365 0.258761 1.58991 0.775459
2009-06-19 10:20:10 51°40.636 2°23.883 21.9421 0.25907 1.591976 0.775459
2009-06-19 10:21:10 51°40.611 2°23.928 21.9418 0.258864 1.590702 0.775459
2009-06-19 10:22:10 51°40.586 2°23.96 21.9394 0.258967 1.591432 0.775459
2009-06-19 10:23:10 51°40.57 2°23.981 21.939 0.258967 1.591463 0.775459
2009-06-19 10:24:10 51°40.565 2°24.008 21.9519 0.258967 1.591463 0.775459
2009-06-19 10:25:10 51°40.568 2°24.037 21.9449 0.258967 1.591557 0.740634
2009-06-19 10:26:10 51°40.55 2°24.101 21.9568 0.25907 1.592318 0.740634
2009-06-19 10:27:10 51°40.59 2°24.272 21.9447 0.258761 1.590282 0.740634
2009-06-19 10:28:10 51°40.701 2°24.552 21.9388 0.258967 1.591681 0.740634
2009-06-19 10:29:10 51°40.822 2°24.844 21.957 0.258967 1.591774 0.740634
2009-06-19 10:30:10 51°40.92 2°24.986 21.963 0.25907 1.592473 0.70581
2009-06-19 10:31:10 51°40.982 2°25.026 22.0008 0.258967 1.591805 0.70581
2009-06-19 10:32:10 51°41.013 2°25.062 21.9805 0.258967 1.591867 0.740634
2009-06-19 10:33:10 51°41.038 2°25.103 21.9911 0.25907 1.592567 0.740634
2009-06-19 10:34:10 51°41.06 2°25.146 21.9919 0.258967 1.591992 0.740634
2009-06-19 10:35:10 51°41.081 2°25.189 21.9913 0.25907 1.592722 0.775459
2009-06-19 10:36:10 51°41.099 2°25.232 21.9914 0.25907 1.592753 0.740634
2009-06-19 10:37:10 51°41.117 2°25.274 21.992 0.25907 1.592784 0.740634
2009-06-19 10:38:10 51°41.134 2°25.317 21.9948 0.258864 1.591541 0.740634
2009-06-19 10:39:10 51°41.153 2°25.362 22.0002 0.258864 1.591603 0.740634
2009-06-19 10:40:10 51°41.173 2°25.404 22.0024 0.258967 1.592365 0.740634
2009-06-19 10:41:10 51°41.196 2°25.447 22.0023 0.258967 1.592396 0.70581
2009-06-19 10:42:10 51°41.218 2°25.49 22.0042 0.25907 1.593095 0.70581
2009-06-19 10:43:10 51°41.238 2°25.531 22.0077 0.258864 1.591789 0.740634
2009-06-19 10:44:10 51°41.256 2°25.572 22.0074 0.258967 1.592489 0.70581
2009-06-19 10:45:10 51°41.276 2°25.613 22.0122 0.258967 1.59252 0.70581
2009-06-19 10:46:10 51°41.296 2°25.653 22.0171 0.258967 1.592644 0.70581
2009-06-19 10:47:10 51°41.318 2°25.694 22.0204 0.25907 1.593375 0.70581
2009-06-19 10:48:10 51°41.344 2°25.733 22.024 0.258864 1.5921 0.670986
2009-06-19 10:49:10 51°41.422 2°25.791 22.024 0.258864 1.5921 0.70581
2009-06-19 10:50:10 51°41.502 2°25.995 22.0269 0.258864 1.592287 0.670986
2009-06-19 10:51:10 51°41.587 2°26.285 22.0328 0.258864 1.592318 0.670986
2009-06-19 10:52:10 51°41.664 2°26.601 22.0352 0.25907 1.593687 0.70581
2009-06-19 10:53:10 51°41.733 2°26.925 22.044 0.25907 1.593655 0.670986
2009-06-19 10:54:10 51°41.79 2°27.252 22.052 0.258967 1.592956 0.70581
2009-06-19 10:55:10 51°41.847 2°27.579 22.0556 0.25907 1.59378 0.670986
2009-06-19 10:56:10 51°41.902 2°27.91 22.0619 0.25907 1.593811 0.70581
2009-06-19 10:57:10 51°41.959 2°28.235 22.0675 0.259173 1.594729 0.670986
2009-06-19 10:58:10 51°42.013 2°28.559 22.074 0.25907 1.594029 0.670986
2009-06-19 10:59:10 51°42.068 2°28.885 22.0797 0.259173 1.594636 0.670986
2009-06-19 11:00:10 51°42.124 2°29.21 22.0883 0.258967 1.593391 0.670986
2009-06-19 11:01:10 51°42.179 2°29.536 22.0978 0.258967 1.593516 0.670986
2009-06-19 11:02:10 51°42.23 2°29.86 22.1035 0.258967 1.593485 0.670986
2009-06-19 11:03:10 51°42.282 2°30.182 21.0726 0.258864 1.592785 0.845107
2009-06-19 11:04:10 51°42.338 2°30.503 21.3283 0.258864 1.592816 0.427218
2009-06-19 11:05:10 51°42.392 2°30.824 21.4242 0.258864 1.592878 0.35757
2009-06-19 11:06:10 51°42.447 2°31.146 21.4561 0.258864 1.592878 0.392394
2009-06-19 11:07:10 51°42.504 2°31.467 21.5053 0.258864 1.593003 0.427218
2009-06-19 11:08:10 51°42.559 2°31.791 21.5025 0.258761 1.592396 0.601338
2009-06-19 11:09:10 51°42.611 2°32.114 21.5802 0.258864 1.593003 0.740634
2009-06-19 11:10:10 51°42.668 2°32.438 21.5823 0.258761 1.592396 0.914755
2009-06-19 11:11:10 51°42.722 2°32.76 21.6374 0.258864 1.593252 1.123699
2009-06-19 11:12:10 51°42.777 2°33.079 21.5725 0.258761 1.59252 1.262995
2009-06-19 11:13:10 51°42.83 2°33.402 21.6067 0.258761 1.592458 1.437116
2009-06-19 11:14:10 51°42.887 2°33.723 21.6593 0.258864 1.593127 1.541588
2009-06-19 11:15:10 51°42.914 2°34.052 21.665 0.258864 1.593158 1.680884
2009-06-19 11:16:10 51°42.929 2°34.38 21.6434 0.258967 1.593796 1.785356
2009-06-19 11:17:10 51°42.947 2°34.706 21.629 0.258761 1.592396 1.889828
2009-06-19 11:18:10 51°42.962 2°35.031 21.6568 0.258967 1.593796 1.924652
2009-06-19 11:19:10 51°42.978 2°35.355 21.6023 0.258967 1.593796 1.9943
2009-06-19 11:20:10 51°42.993 2°35.684 21.652 0.258967 1.593703 2.029124
2009-06-19 11:21:10 51°43.005 2°36.01 21.7094 0.25907 1.594372 2.063949
2009-06-19 11:22:10 51°43.02 2°36.339 21.7127 0.25907 1.594372 2.098773
2009-06-19 11:23:10 51°43.035 2°36.664 21.5839 0.258967 1.593672 2.133597
2009-06-19 11:24:10 51°43.047 2°36.989 21.7351 0.258967 1.59364 2.133597
2009-06-19 11:25:10 51°43.062 2°37.313 21.6844 0.258864 1.592971 2.133597
2009-06-19 11:26:10 51°43.079 2°37.639 21.7454 0.25907 1.594278 2.133597
2009-06-19 11:27:10 51°43.093 2°37.967 21.7139 0.25907 1.594216 2.133597
2009-06-19 11:28:10 51°43.109 2°38.292 21.73 0.258967 1.593609 2.133597
2009-06-19 11:29:10 51°43.123 2°38.617 21.6998 0.25907 1.594216 2.133597
2009-06-19 11:30:10 51°43.14 2°38.942 21.7035 0.258967 1.593485 2.168421
2009-06-19 11:31:10 51°43.157 2°39.267 21.7298 0.25907 1.594154 2.133597
2009-06-19 11:32:10 51°43.173 2°39.59 21.7275 0.25907 1.594123 2.133597
2009-06-19 11:33:10 51°43.192 2°39.914 21.7033 0.25907 1.594029 2.133597
2009-06-19 11:34:10 51°43.21 2°40.236 21.7279 0.259173 1.594729 2.133597
2009-06-19 11:35:10 51°43.216 2°40.559 21.737 0.258967 1.593454 2.098773
2009-06-19 11:36:10 51°43.201 2°40.877 21.7679 0.259276 1.595523 2.133597
2009-06-19 11:37:10 51°43.186 2°41.194 21.7445 0.259276 1.595429 2.098773
2009-06-19 11:38:10 51°43.169 2°41.513 21.7281 0.259276 1.595398 2.133597
2009-06-19 11:39:10 51°43.157 2°41.798 21.7569 0.259379 1.596036 2.098773
2009-06-19 11:40:10 51°43.139 2°41.955 21.7725 0.259379 1.596036 2.098773
2009-06-19 11:41:10 51°43.115 2°42.016 21.7584 0.259379 1.596005 2.098773
2009-06-19 11:42:10 51°43.097 2°42.045 21.7577 0.259379 1.595942 2.098773
2009-06-19 11:43:10 51°43.06 2°42.048 21.7908 0.259276 1.595242 2.098773
2009-06-19 11:44:10 51°43.029 2°42.003 21.7892 0.259276 1.595242 2.098773
2009-06-19 11:45:10 51°43.015 2°41.927 21.7795 0.259379 1.59588 2.133597
2009-06-19 11:46:10 51°43.033 2°41.84 21.7768 0.259276 1.59518 2.133597
2009-06-19 11:47:10 51°43.082 2°41.771 21.7813 0.259379 1.595849 2.133597
2009-06-19 11:48:10 51°43.143 2°41.717 21.8027 0.259276 1.595149 2.133597
2009-06-19 11:49:10 51°43.209 2°41.671 21.7993 0.259482 1.596455 2.133597
2009-06-19 11:50:10 51°43.269 2°41.623 21.8019 0.259379 1.595787 2.168421
2009-06-19 11:51:10 51°43.334 2°41.588 21.8118 0.259379 1.595755 2.168421
2009-06-19 11:52:10 51°43.405 2°41.57 21.8046 0.259276 1.595086 2.168421
2009-06-19 11:53:10 51°43.478 2°41.56 21.8105 0.259482 1.596393 2.203245
2009-06-19 11:54:10 51°43.551 2°41.549 21.809 0.259379 1.595693 2.203245
2009-06-19 11:55:10 51°43.623 2°41.535 21.8239 0.259482 1.596362 2.238069
2009-06-19 11:56:10 51°43.694 2°41.524 21.8181 0.259482 1.596362 2.203245
2009-06-19 11:57:10 51°43.76 2°41.519 21.8183 0.259688 1.597668 2.238069
2009-06-19 11:58:10 51°43.822 2°41.514 21.8304 0.259482 1.596299 2.238069
2009-06-19 11:59:10 51°43.884 2°41.512 21.8263 0.259585 1.596968 2.272893
2009-06-19 12:00:10 51°43.945 2°41.512 21.8297 0.259585 1.596937 2.272893
2009-06-19 12:01:10 51°44.006 2°41.508 21.8355 0.259585 1.596937 2.272893
2009-06-19 12:02:10 51°44.068 2°41.502 21.834 0.259585 1.596906 2.307717
2009-06-19 12:03:10 51°44.129 2°41.498 21.8392 0.259482 1.596237 2.307717
2009-06-19 12:04:10 51°44.189 2°41.493 21.846 0.259585 1.596937 2.307717
2009-06-19 12:05:10 51°44.25 2°41.491 21.8417 0.259688 1.597575 2.307717
2009-06-19 12:06:10 51°44.312 2°41.487 21.851 0.259585 1.596906 2.342541
2009-06-19 12:07:10 51°44.373 2°41.486 21.8497 0.259482 1.596206 2.377365
2009-06-19 12:08:10 51°44.433 2°41.482 21.8569 0.259585 1.596875 2.377365
2009-06-19 12:09:10 51°44.494 2°41.477 21.8541 0.259688 1.597544 2.377365
2009-06-19 12:10:10 51°44.555 2°41.485 21.859 0.259688 1.597512 2.377365
2009-06-19 12:11:10 51°44.619 2°41.509 21.8603 0.259585 1.596844 2.412189
2009-06-19 12:12:10 51°44.681 2°41.552 21.8616 0.259688 1.597512 2.377365
2009-06-19 12:13:10 51°44.739 2°41.607 21.8646 0.259791 1.598181 2.412189
2009-06-19 12:14:10 51°44.787 2°41.685 21.867 0.259688 1.597512 2.412189
2009-06-19 12:15:10 51°44.818 2°41.791 21.8691 0.259791 1.59815 2.447013
2009-06-19 12:16:10 51°44.831 2°41.905 21.871 0.259791 1.59815 2.447013
2009-06-19 12:17:10 51°44.849 2°42.019 21.8744 0.259688 1.597481 2.447013
2009-06-19 12:18:10 51°44.855 2°42.127 21.8754 0.259791 1.59815 2.447013
2009-06-19 12:19:10 51°44.845 2°42.227 21.8796 0.259791 1.59815 2.447013
2009-06-19 12:20:10 51°44.825 2°42.315 21.8806 0.259791 1.59815 2.481837
2009-06-19 12:21:10 51°44.796 2°42.384 21.8831 0.259688 1.597481 2.481837
2009-06-19 12:22:10 51°44.77 2°42.43 21.8858 0.259688 1.597481 2.481837
2009-06-19 12:23:10 51°44.744 2°42.466 21.8883 0.259688 1.597481 2.481837
2009-06-19 12:24:10 51°44.719 2°42.497 21.8918 0.259688 1.597481 2.481837
2009-06-19 12:25:10 51°44.697 2°42.523 21.8947 0.259894 1.598819 2.481837
2009-06-19 12:26:10 51°44.692 2°42.544 21.9579 0.259791 1.59815 2.481837
2009-06-19 12:27:10 51°44.681 2°42.555 21.9731 0.259791 1.598119 2.481837
2009-06-19 12:28:10 51°44.681 2°42.488 21.9777 0.259688 1.59745 2.481837
2009-06-19 12:29:10 51°44.775 2°42.332 21.9987 0.259791 1.598181 2.516661
2009-06-19 12:30:10 51°44.875 2°42.249 21.9955 0.259894 1.59885 2.516661
2009-06-19 12:31:10 51°44.932 2°42.203 22.005 0.259791 1.598181 2.516661
2009-06-19 12:32:10 51°44.969 2°42.161 22.0163 0.259894 1.598819 2.551485
2009-06-19 12:33:10 51°45.005 2°42.165 22.0238 0.259996 1.599488 2.516661
2009-06-19 12:34:10 51°45.029 2°42.183 22.0338 0.259791 1.598212 2.551485
2009-06-19 12:35:10 51°45.049 2°42.204 22.0406 0.259996 1.59955 2.551485
2009-06-19 12:36:10 51°45.065 2°42.229 22.05 0.259894 1.598881 2.551485
2009-06-19 12:37:10 51°45.079 2°42.256 22.0576 0.259996 1.599519 2.551485
2009-06-19 12:38:10 51°45.093 2°42.283 22.0653 0.259791 1.598212 2.551485
2009-06-19 12:39:10 51°45.104 2°42.309 22.0739 0.259996 1.59955 2.586309
2009-06-19 12:40:10 51°45.118 2°42.335 22.081 0.259894 1.598881 2.586309
2009-06-19 12:41:10 51°45.132 2°42.359 22.0907 0.259894 1.598913 2.586309
2009-06-19 12:42:10 51°45.144 2°42.381 22.0992 0.259996 1.599581 2.586309
2009-06-19 12:43:10 51°45.155 2°42.407 22.1087 0.259894 1.598913 2.586309
2009-06-19 12:44:10 51°45.167 2°42.43 22.1161 0.259996 1.599613 2.586309
2009-06-19 12:45:10 51°45.179 2°42.454 22.1248 0.259894 1.598944 2.621133
2009-06-19 12:46:10 51°45.191 2°42.478 22.1351 0.259996 1.599613 2.621133
2009-06-19 12:47:10 51°45.226 2°42.508 22.1411 0.259791 1.598244 2.621133
2009-06-19 12:48:10 51°45.251 2°42.637 22.1505 0.259791 1.598212 2.621133
2009-06-19 12:49:10 51°45.154 2°42.805 22.1607 0.259791 1.598369 2.621133
2009-06-19 12:50:10 51°45.031 2°43.036 22.1702 0.259996 1.599706 2.621133
2009-06-19 12:51:10 51°44.9 2°43.259 22.1811 0.259996 1.5998 2.655957
2009-06-19 12:52:10 51°44.765 2°43.481 22.1928 0.259996 1.5998 2.621133
2009-06-19 12:53:10 51°44.63 2°43.698 22.2022 0.260305 1.602058 2.655957
2009-06-19 12:54:10 51°44.494 2°43.913 22.2125 0.260202 1.601169 2.655957
2009-06-19 12:55:10 51°44.361 2°44.126 22.2213 0.260305 1.601807 2.655957
2009-06-19 12:56:10 51°44.23 2°44.335 21.7097 0.260099 1.600469 3.387263
2009-06-19 12:57:10 51°44.102 2°44.545 21.6935 0.260099 1.600532 2.621133
2009-06-19 12:58:10 51°43.973 2°44.757 21.6988 0.260202 1.601263 2.655957
2009-06-19 12:59:10 51°43.841 2°44.963 21.7823 0.259996 1.599925 2.655957
2009-06-19 13:00:10 51°43.707 2°45.168 21.8146 0.260099 1.600751 2.690782
2009-06-19 13:01:10 51°43.575 2°45.373 21.7735 0.260099 1.600719 2.586309
2009-06-19 13:02:10 51°43.445 2°45.578 21.8461 0.260202 1.601357 2.655957
2009-06-19 13:03:10 51°43.314 2°45.781 21.6902 0.260202 1.601389 2.690782
2009-06-19 13:04:10 51°43.183 2°45.981 21.863 0.260305 1.601995 2.690782
2009-06-19 13:05:10 51°43.052 2°46.188 21.7991 0.260305 1.601964 2.690782
2009-06-19 13:06:10 51°42.919 2°46.394 21.8443 0.260305 1.601995 2.690782
2009-06-19 13:07:10 51°42.783 2°46.593 21.8678 0.260305 1.602026 2.690782
2009-06-19 13:08:10 51°42.651 2°46.799 21.8147 0.260202 1.601326 2.690782
2009-06-19 13:09:10 51°42.516 2°47.001 21.7961 0.260202 1.601389 2.690782
2009-06-19 13:10:10 51°42.382 2°47.203 21.8444 0.260511 1.603365 2.690782
2009-06-19 13:11:10 51°42.249 2°47.408 21.8685 0.260305 1.602214 2.690782
2009-06-19 13:12:10 51°42.112 2°47.609 21.8464 0.260305 1.602214 2.655957
2009-06-19 13:13:10 51°41.974 2°47.809 21.8724 0.260202 1.601482 2.655957
2009-06-19 13:14:10 51°41.838 2°48.01 21.928 0.260408 1.602883 2.690782
2009-06-19 13:15:10 51°41.701 2°48.209 21.8716 0.260202 1.601482 2.690782
2009-06-19 13:16:10 51°41.566 2°48.407 21.8823 0.260408 1.602789 2.655957
2009-06-19 13:17:10 51°41.427 2°48.603 21.8905 0.260408 1.602821 2.690782
2009-06-19 13:18:10 51°41.289 2°48.798 21.9055 0.260408 1.602915 2.655957
2009-06-19 13:19:10 51°41.152 2°48.998 21.9166 0.260511 1.603553 2.621133
2009-06-19 13:20:10 51°41.013 2°49.196 21.8854 0.260408 1.602789 2.586309
2009-06-19 13:21:10 51°40.874 2°49.393 21.9153 0.260408 1.602727 2.655957
2009-06-19 13:22:10 51°40.733 2°49.596 21.8852 0.260408 1.602789 2.690782
2009-06-19 13:23:10 51°40.59 2°49.798 21.8873 0.260408 1.602789 2.655957
2009-06-19 13:24:10 51°40.449 2°50.004 21.9094 0.260408 1.602758 2.690782
2009-06-19 13:25:10 51°40.311 2°50.202 21.8958 0.260305 1.602183 2.690782
2009-06-19 13:26:10 51°40.173 2°50.402 21.8941 0.260305 1.60212 2.655957
2009-06-19 13:27:10 51°40.034 2°50.606 21.9534 0.260511 1.603521 2.690782
2009-06-19 13:28:10 51°39.9 2°50.813 21.9373 0.260614 1.604065 2.655957
2009-06-19 13:29:10 51°39.765 2°51.016 21.9313 0.260511 1.603333 2.655957
2009-06-19 13:30:10 51°39.63 2°51.224 21.9203 0.260408 1.602758 2.655957
2009-06-19 13:31:10 51°39.502 2°51.451 21.9432 0.260614 1.604097 2.655957
2009-06-19 13:32:10 51°39.376 2°51.684 21.9455 0.260614 1.604065 2.655957
2009-06-19 13:33:10 51°39.251 2°51.917 21.9764 0.260614 1.604065 2.621133
2009-06-19 13:34:10 51°39.127 2°52.152 21.9338 0.260511 1.603459 2.690782
2009-06-19 13:35:11 51°38.998 2°52.378 21.9836 0.26082 1.605341 2.655957
2009-06-19 13:36:10 51°38.875 2°52.601 21.9802 0.260717 1.604578 2.690782
2009-06-19 13:37:10 51°38.75 2°52.833 21.9648 0.260717 1.604484 2.655957
2009-06-19 13:38:10 51°38.625 2°53.063 21.9825 0.260614 1.603689 2.655957
2009-06-19 13:39:10 51°38.499 2°53.285 21.9875 0.260717 1.604578 2.690782
2009-06-19 13:40:10 51°38.377 2°53.511 21.9675 0.260717 1.60439 2.655957
2009-06-19 13:41:10 51°38.251 2°53.734 21.9579 0.260614 1.603689 2.690782
2009-06-19 13:42:10 51°38.125 2°53.958 21.925 0.260923 1.605728 2.655957
2009-06-19 13:43:10 51°37.996 2°54.18 21.9531 0.260923 1.605571 2.690782
2009-06-19 13:44:10 51°37.867 2°54.401 21.9804 0.260923 1.605571 2.690782
2009-06-19 13:45:10 51°37.74 2°54.626 21.9796 0.261026 1.606303 2.690782
2009-06-19 13:46:10 51°37.617 2°54.85 21.9933 0.26082 1.604902 2.725606
2009-06-19 13:47:10 51°37.492 2°55.076 21.9823 0.260923 1.605477 2.725606
2009-06-19 13:48:10 51°37.367 2°55.308 21.978 0.260923 1.605383 2.655957
2009-06-19 13:49:10 51°37.244 2°55.54 21.9612 0.26082 1.604683 2.725606
2009-06-19 13:50:10 51°37.119 2°55.772 21.9908 0.261026 1.60602 2.725606
2009-06-19 13:51:10 51°36.994 2°56.006 22.0054 0.261026 1.605989 2.725606
2009-06-19 13:52:10 51°36.867 2°56.239 22.0065 0.261026 1.605895 2.725606
2009-06-19 13:53:10 51°36.742 2°56.475 22.0032 0.260923 1.605226 2.725606
2009-06-19 13:54:10 51°36.615 2°56.708 22.0261 0.261026 1.605864 2.725606
2009-06-19 13:55:10 51°36.488 2°56.942 22.0016 0.260923 1.605069 2.725606
2009-06-19 13:56:10 51°36.36 2°57.174 22.0119 0.261026 1.60577 2.725606
2009-06-19 13:57:10 51°36.234 2°57.4 22.011 0.261129 1.606407 2.725606
2009-06-19 13:58:10 51°36.106 2°57.626 22.0137 0.261026 1.605613 2.76043
2009-06-19 13:59:10 51°35.978 2°57.851 22.0301 0.261129 1.606313 2.76043
2009-06-19 14:00:10 51°35.853 2°58.079 22.0377 0.261026 1.605487 2.725606
2009-06-19 14:01:10 51°35.725 2°58.308 22.0387 0.261026 1.605581 2.725606
2009-06-19 14:02:10 51°35.596 2°58.536 22.0335 0.261026 1.605393 2.76043
2009-06-19 14:03:10 51°35.473 2°58.767 22.0385 0.261129 1.605999 2.725606
2009-06-19 14:04:10 51°35.35 2°58.999 22.0418 0.261129 1.605968 2.76043
2009-06-19 14:05:10 51°35.223 2°59.223 22.0508 0.261026 1.605174 2.76043
2009-06-19 14:06:10 51°35.079 2°59.416 22.0507 0.261129 1.605811 2.76043
2009-06-19 14:07:10 51°34.93 2°59.602 22.0589 0.261129 1.605811 2.795254
2009-06-19 14:08:10 51°34.788 2°59.781 22.0573 0.261232 1.606417 2.76043
2009-06-19 14:09:10 51°34.682 2°59.924 22.0583 0.261232 1.606323 2.76043
2009-06-19 14:10:10 51°34.584 3°0.045 22.0648 0.261129 1.605623 2.76043
2009-06-19 14:11:10 51°34.567 3°0.163 22.0697 0.261129 1.605592 2.76043
2009-06-19 14:12:10 51°34.594 3°0.204 22.089 0.261129 1.605498 2.76043
2009-06-19 14:13:10 51°34.614 3°0.217 22.1304 0.261026 1.604798 2.725606
2009-06-19 14:14:10 51°34.625 3°0.226 22.1471 0.261232 1.606041 2.76043
2009-06-19 14:15:10 51°34.631 3°0.232 22.158 0.261026 1.604642 2.76043
2009-06-19 14:16:10 51°34.633 3°0.242 22.1769 0.261232 1.605916 2.795254
2009-06-19 14:17:10 51°34.635 3°0.254 22.1903 0.261129 1.605185 2.76043
2009-06-19 14:18:10 51°34.634 3°0.264 22.2009 0.261026 1.604454 2.76043
2009-06-19 14:19:10 51°34.642 3°0.278 22.2147 0.261232 1.605728 2.76043
2009-06-19 14:20:10 51°34.671 3°0.333 22.228 0.261026 1.604297 2.795254
2009-06-19 14:21:10 51°34.645 3°0.4 22.2424 0.261232 1.60554 2.76043
2009-06-19 14:22:10 51°34.574 3°0.403 22.2562 0.261129 1.604778 2.795254
2009-06-19 14:23:10 51°34.41 3°0.337 22.269 0.261335 1.606114 2.76043
2009-06-19 14:24:10 51°34.233 3°0.246 22.2819 0.261335 1.605958 2.76043
2009-06-19 14:25:10 51°34.055 3°0.149 22.2948 0.261335 1.605895 2.795254
2009-06-19 14:26:10 51°33.878 3°0.047 22.3083 0.261335 1.605895 2.795254
2009-06-19 14:27:10 51°33.7 2°59.945 22.3224 0.261232 1.605039 2.795254
2009-06-19 14:28:10 51°33.524 2°59.842 22.335 0.261335 1.605707 2.795254
2009-06-19 14:29:10 51°33.346 2°59.737 22.3487 0.261335 1.605613 2.795254
2009-06-19 14:30:10 51°33.166 2°59.634 22.3632 0.261541 1.606887 2.795254
2009-06-19 14:31:10 51°32.984 2°59.536 22.379 0.261335 1.605457 2.795254
2009-06-19 14:32:10 51°32.798 2°59.442 22.3928 0.261438 1.606062 2.795254
2009-06-19 14:33:10 51°32.612 2°59.355 22.4046 0.261438 1.606 2.795254
2009-06-19 14:34:10 51°32.425 2°59.27 22.4242 0.261438 1.605906 2.795254
2009-06-19 14:35:10 51°32.238 2°59.181 22.439 0.261335 1.605144 2.830078
2009-06-19 14:36:11 51°32.049 2°59.092 22.4534 0.261541 1.606511 2.830078
2009-06-19 14:37:10 51°31.865 2°59.007 22.472 0.261643 1.607054 2.795254
2009-06-19 14:38:10 51°31.676 2°58.915 22.4853 0.261643 1.606897 2.830078
2009-06-19 14:39:10 51°31.486 2°58.825 22.5016 0.26154 1.606198 2.830078
2009-06-19 14:40:10 51°31.292 2°58.74 22.5209 0.26154 1.606104 2.830078
2009-06-19 14:41:10 51°31.101 2°58.653 22.5344 0.261643 1.606741 2.830078
2009-06-19 14:42:10 51°30.911 2°58.562 22.5481 0.261643 1.606615 2.830078
2009-06-19 14:43:10 51°30.72 2°58.472 22.568 0.26154 1.605885 2.864902
2009-06-19 14:44:10 51°30.529 2°58.382 22.584 0.261643 1.606428 2.830078
2009-06-19 14:45:10 51°30.339 2°58.293 22.599 0.26154 1.605729 2.830078
2009-06-19 14:46:10 51°30.149 2°58.201 22.6163 0.261643 1.606271 2.830078
2009-06-19 14:47:10 51°29.958 2°58.109 22.6293 0.261643 1.606209 2.830078
2009-06-19 14:48:10 51°29.77 2°58.017 22.6463 0.261643 1.606146 2.830078
2009-06-19 14:49:10 51°29.582 2°57.926 22.6689 0.261746 1.606688 2.830078
2009-06-19 14:50:10 51°29.394 2°57.834 22.6647 0.261643 1.605958 2.795254
2009-06-19 14:51:10 51°29.208 2°57.742 22.6688 0.261746 1.606532 2.76043
2009-06-19 14:52:11 51°29.018 2°57.654 22.6804 0.261746 1.606438 2.864902
2009-06-19 14:53:10 51°28.833 2°57.573 22.6913 0.261746 1.606407 2.864902
2009-06-19 14:54:10 51°28.643 2°57.491 22.7073 0.261643 1.605583 2.864902
2009-06-19 14:55:10 51°28.451 2°57.403 22.722 0.261643 1.605521 2.864902
2009-06-19 14:56:10 51°28.258 2°57.319 22.74 0.261643 1.605427 2.899726
2009-06-19 14:57:11 51°28.063 2°57.233 22.7537 0.261643 1.605333 2.864902
2009-06-19 14:58:10 51°27.872 2°57.15 22.7714 0.261643 1.605208 2.864902
2009-06-19 14:59:10 51°27.677 2°57.066 22.7929 0.261849 1.60648 2.899726
2009-06-19 15:00:10 51°27.483 2°56.981 22.805 0.261746 1.605782 2.899726
2009-06-19 15:01:10 51°27.29 2°56.897 22.8203 0.261746 1.605657 2.864902
2009-06-19 15:02:10 51°27.095 2°56.811 22.8347 0.261746 1.605563 2.899726
2009-06-19 15:03:10 51°26.905 2°56.728 22.8449 0.261746 1.605469 2.864902
2009-06-19 15:04:11 51°26.715 2°56.64 22.865 0.261849 1.606074 2.864902
2009-06-19 15:05:10 51°26.53 2°56.557 22.4753 0.261849 1.60598 2.830078
2009-06-19 15:06:11 51°26.338 2°56.472 22.5336 0.261952 1.606491 2.864902
2009-06-19 15:07:10 51°26.15 2°56.385 22.5855 0.261952 1.606428 2.864902
2009-06-19 15:08:10 51°25.958 2°56.301 22.5946 0.261952 1.606303 2.864902
2009-06-19 15:09:10 51°25.766 2°56.213 22.6414 0.261952 1.60621 2.864902
2009-06-19 15:10:10 51°25.575 2°56.126 22.6221 0.261952 1.606147 2.864902
2009-06-19 15:11:10 51°25.384 2°56.035 22.6324 0.261952 1.606054 2.899726
2009-06-19 15:12:10 51°25.191 2°55.945 22.6364 0.261952 1.605897 2.864902
2009-06-19 15:13:10 51°24.997 2°55.853 22.6833 0.262055 1.60647 2.899726
2009-06-19 15:14:10 51°24.802 2°55.761 22.6456 0.261952 1.60571 2.899726
2009-06-19 15:15:11 51°24.604 2°55.669 22.6737 0.262055 1.606345 2.899726
2009-06-19 15:16:10 51°24.413 2°55.578 22.7189 0.262158 1.606918 2.864902
2009-06-19 15:17:11 51°24.216 2°55.484 22.7164 0.262158 1.606825 2.899726
2009-06-19 15:18:10 51°24.024 2°55.394 22.7043 0.262158 1.6067 2.899726
2009-06-19 15:19:10 51°23.827 2°55.305 22.691 0.262158 1.606575 2.899726
2009-06-19 15:20:10 51°23.63 2°55.218 22.7318 0.262158 1.606481 2.899726
2009-06-19 15:21:10 51°23.434 2°55.13 22.7604 0.262158 1.606356 2.899726
2009-06-19 15:22:10 51°23.236 2°55.042 22.761 0.262158 1.606263 2.899726
2009-06-19 15:23:10 51°23.04 2°54.952 22.7599 0.262158 1.606169 2.899726
2009-06-19 15:24:10 51°22.846 2°54.862 22.7652 0.262158 1.606076 2.899726
2009-06-19 15:25:10 51°22.652 2°54.771 22.777 0.262261 1.606648 2.899726
2009-06-19 15:26:10 51°22.457 2°54.694 22.7708 0.262261 1.606523 2.899726
2009-06-19 15:27:10 51°22.261 2°54.635 22.7805 0.262261 1.606399 2.899726
2009-06-19 15:28:10 51°22.063 2°54.575 22.7834 0.262261 1.606274 2.899726
2009-06-19 15:29:10 51°21.865 2°54.52 22.803 0.262364 1.606815 2.899726
2009-06-19 15:30:10 51°21.668 2°54.458 22.8053 0.262364 1.606659 2.899726
2009-06-19 15:31:10 51°21.47 2°54.396 22.8107 0.262467 1.607138 2.899726
2009-06-19 15:32:10 51°21.27 2°54.333 22.8062 0.262364 1.60641 2.93455
2009-06-19 15:33:10 51°21.069 2°54.271 22.8206 0.262364 1.606347 2.899726
2009-06-19 15:34:10 51°20.869 2°54.206 22.8094 0.262364 1.606192 2.93455
2009-06-19 15:35:10 51°20.669 2°54.145 22.8221 0.262467 1.606795 2.899726
2009-06-19 15:36:10 51°20.469 2°54.087 22.8298 0.262467 1.606639 2.899726
2009-06-19 15:37:10 51°20.269 2°54.026 22.8349 0.262467 1.606514 2.899726
2009-06-19 15:38:11 51°20.068 2°53.939 22.8438 0.26257 1.607055 2.899726
2009-06-19 15:39:10 51°19.874 2°53.853 22.8362 0.26257 1.606993 2.899726
2009-06-19 15:40:10 51°19.679 2°53.765 22.8524 0.262673 1.607534 2.899726
2009-06-19 15:41:10 51°19.484 2°53.675 22.8535 0.262673 1.607378 2.93455
2009-06-19 15:42:11 51°19.284 2°53.586 22.8605 0.262673 1.60716 2.899726
2009-06-19 15:43:10 51°19.092 2°53.499 22.8599 0.262673 1.607035 2.899726
2009-06-19 15:44:10 51°18.895 2°53.411 22.8638 0.26257 1.606245 2.93455
2009-06-19 15:45:10 51°18.7 2°53.319 22.8679 0.262673 1.606786 2.93455
2009-06-19 15:46:11 51°18.499 2°53.223 22.8735 0.262673 1.606661 2.93455
2009-06-19 15:47:10 51°18.306 2°53.132 22.8792 0.262776 1.607202 2.899726
2009-06-19 15:48:10 51°18.108 2°53.039 22.8783 0.262673 1.606381 2.93455
2009-06-19 15:49:11 51°17.907 2°52.944 22.8844 0.262776 1.606953 2.93455
2009-06-19 15:50:10 51°17.712 2°52.853 22.8841 0.262673 1.606163 2.899726
2009-06-19 15:51:11 51°17.51 2°52.761 22.8925 0.262776 1.606673 2.93455
2009-06-19 15:52:10 51°17.314 2°52.67 22.8947 0.262879 1.607151 2.899726
2009-06-19 15:53:10 51°17.116 2°52.584 22.897 0.262879 1.607057 2.93455
2009-06-19 15:54:11 51°16.912 2°52.567 22.9013 0.262879 1.606933 2.969374
2009-06-19 15:55:10 51°16.722 2°52.643 22.9046 0.262879 1.606715 2.969374
2009-06-19 15:56:10 51°16.534 2°52.747 22.9077 0.262879 1.606591 2.93455
2009-06-19 15:57:10 51°16.346 2°52.836 22.9105 0.262981 1.6071 2.93455
2009-06-19 15:58:11 51°16.154 2°52.929 22.9135 0.262981 1.607006 2.93455
2009-06-19 15:59:10 51°15.972 2°53.027 22.9152 0.263084 1.607515 2.93455
2009-06-19 16:00:10 51°15.792 2°53.143 22.9177 0.263084 1.60736 2.969374
2009-06-19 16:01:11 51°15.609 2°53.261 22.9197 0.263084 1.607204 2.93455
2009-06-19 16:02:11 51°15.433 2°53.388 22.9213 0.263187 1.607806 2.969374
2009-06-19 16:03:11 51°15.275 2°53.507 22.9249 0.26329 1.608284 2.93455
2009-06-19 16:04:10 51°15.181 2°53.565 22.9276 0.263393 1.608792 2.969374
2009-06-19 16:05:11 51°15.122 2°53.628 22.9298 0.26329 1.608004 2.969374
2009-06-19 16:06:10 51°15.074 2°53.708 22.9325 0.26329 1.607879 2.969374
2009-06-19 16:07:11 51°15.017 2°53.812 22.9342 0.26329 1.607755 2.969374
2009-06-19 16:08:10 51°14.963 2°53.913 22.9384 0.263393 1.608264 2.969374
2009-06-19 16:09:10 51°14.914 2°54.006 22.9402 0.263496 1.608803 2.969374
2009-06-19 16:10:11 51°14.864 2°54.098 22.943 0.263496 1.608648 2.969374
2009-06-19 16:11:11 51°14.83 2°54.229 22.9453 0.263393 1.607891 2.969374
2009-06-19 16:12:11 51°14.803 2°54.364 22.9498 0.263496 1.608399 2.969374
2009-06-19 16:13:10 51°14.78 2°54.506 22.9506 0.263496 1.608275 3.004198
2009-06-19 16:14:11 51°14.673 2°54.675 22.9561 0.263393 1.607394 2.969374
2009-06-19 16:15:10 51°14.518 2°54.843 22.9568 0.263496 1.607995 3.004198
2009-06-19 16:16:11 51°14.374 2°55.051 22.9633 0.263496 1.607902 3.004198
2009-06-19 16:17:10 51°14.255 2°55.266 22.9643 0.263599 1.608472 3.004198
2009-06-19 16:18:11 51°14.132 2°55.404 22.9667 0.263702 1.608949 3.004198
2009-06-19 16:19:11 51°14.01 2°55.497 22.9703 0.263702 1.608825 3.004198
2009-06-19 16:20:10 51°13.887 2°55.586 22.9722 0.263702 1.60867 3.004198
2009-06-19 16:21:11 51°13.769 2°55.7 22.9742 0.263805 1.609178 3.004198
2009-06-19 16:22:11 51°13.7 2°55.823 22.9773 0.263805 1.609053 3.004198
2009-06-19 16:23:14 51°13.67 2°55.927 22.9795 0.263908 1.609623 3.039022
2009-06-19 16:24:14 51°13.661 2°55.958 22.9813 0.263908 1.609468 3.004198